sensor_id;sensor_type;location;lat;lon;timestamp;P1;durP1;ratioP1;P2;durP2;ratioP2
61785;SDS011;47692;53.714;11.372;2024-02-23T00:01:49;0.63;;;0.60;;
61785;SDS011;47692;53.714;11.372;2024-02-23T00:04:15;1.73;;;0.88;;
61785;SDS011;47692;53.714;11.372;2024-02-23T00:06:41;1.05;;;0.70;;
61785;SDS011;47692;53.714;11.372;2024-02-23T00:09:06;2.38;;;1.45;;
61785;SDS011;47692;53.714;11.372;2024-02-23T00:11:31;2.90;;;1.13;;
61785;SDS011;47692;53.714;11.372;2024-02-23T00:13:58;2.40;;;0.90;;
61785;SDS011;47692;53.714;11.372;2024-02-23T00:16:24;2.05;;;0.73;;
61785;SDS011;47692;53.714;11.372;2024-02-23T00:18:49;2.47;;;0.95;;
61785;SDS011;47692;53.714;11.372;2024-02-23T00:21:15;1.67;;;0.85;;
61785;SDS011;47692;53.714;11.372;2024-02-23T00:23:41;1.98;;;0.80;;
61785;SDS011;47692;53.714;11.372;2024-02-23T00:26:06;1.75;;;0.93;;
61785;SDS011;47692;53.714;11.372;2024-02-23T00:28:32;1.63;;;0.80;;
61785;SDS011;47692;53.714;11.372;2024-02-23T00:30:57;0.88;;;0.68;;
61785;SDS011;47692;53.714;11.372;2024-02-23T00:33:22;1.17;;;0.70;;
61785;SDS011;47692;53.714;11.372;2024-02-23T00:35:48;1.27;;;0.77;;
61785;SDS011;47692;53.714;11.372;2024-02-23T00:38:14;1.77;;;0.68;;
61785;SDS011;47692;53.714;11.372;2024-02-23T00:40:39;2.88;;;0.88;;
61785;SDS011;47692;53.714;11.372;2024-02-23T00:43:04;1.88;;;0.80;;
61785;SDS011;47692;53.714;11.372;2024-02-23T00:45:30;1.23;;;0.68;;
61785;SDS011;47692;53.714;11.372;2024-02-23T00:47:56;2.15;;;0.52;;
61785;SDS011;47692;53.714;11.372;2024-02-23T00:50:22;2.72;;;0.70;;
61785;SDS011;47692;53.714;11.372;2024-02-23T00:52:48;1.88;;;0.80;;
61785;SDS011;47692;53.714;11.372;2024-02-23T00:55:14;1.25;;;0.60;;
61785;SDS011;47692;53.714;11.372;2024-02-23T00:57:39;2.60;;;0.80;;
61785;SDS011;47692;53.714;11.372;2024-02-23T01:00:04;1.50;;;0.85;;
61785;SDS011;47692;53.714;11.372;2024-02-23T01:02:31;1.75;;;0.90;;
61785;SDS011;47692;53.714;11.372;2024-02-23T01:04:58;1.88;;;0.75;;
61785;SDS011;47692;53.714;11.372;2024-02-23T01:07:24;2.08;;;0.77;;
61785;SDS011;47692;53.714;11.372;2024-02-23T01:09:50;2.08;;;0.70;;
61785;SDS011;47692;53.714;11.372;2024-02-23T01:12:15;3.50;;;0.80;;
61785;SDS011;47692;53.714;11.372;2024-02-23T01:14:40;2.30;;;0.68;;
61785;SDS011;47692;53.714;11.372;2024-02-23T01:17:06;1.17;;;0.73;;
61785;SDS011;47692;53.714;11.372;2024-02-23T01:19:31;1.80;;;0.93;;
61785;SDS011;47692;53.714;11.372;2024-02-23T01:21:56;3.33;;;0.80;;
61785;SDS011;47692;53.714;11.372;2024-02-23T01:24:25;1.42;;;0.90;;
61785;SDS011;47692;53.714;11.372;2024-02-23T01:26:53;3.63;;;1.00;;
61785;SDS011;47692;53.714;11.372;2024-02-23T01:29:19;2.97;;;1.10;;
61785;SDS011;47692;53.714;11.372;2024-02-23T01:31:45;1.92;;;1.30;;
61785;SDS011;47692;53.714;11.372;2024-02-23T01:34:10;1.50;;;0.95;;
61785;SDS011;47692;53.714;11.372;2024-02-23T01:36:36;2.17;;;0.80;;
61785;SDS011;47692;53.714;11.372;2024-02-23T01:39:02;1.23;;;0.60;;
61785;SDS011;47692;53.714;11.372;2024-02-23T01:41:27;1.20;;;0.93;;
61785;SDS011;47692;53.714;11.372;2024-02-23T01:43:53;2.50;;;0.88;;
61785;SDS011;47692;53.714;11.372;2024-02-23T01:46:18;2.78;;;1.08;;
61785;SDS011;47692;53.714;11.372;2024-02-23T01:48:44;3.58;;;0.82;;
61785;SDS011;47692;53.714;11.372;2024-02-23T01:51:11;1.50;;;0.73;;
61785;SDS011;47692;53.714;11.372;2024-02-23T01:53:37;2.72;;;0.90;;
61785;SDS011;47692;53.714;11.372;2024-02-23T01:56:03;2.03;;;0.80;;
61785;SDS011;47692;53.714;11.372;2024-02-23T01:58:30;3.00;;;0.75;;
61785;SDS011;47692;53.714;11.372;2024-02-23T02:00:58;2.30;;;0.63;;
61785;SDS011;47692;53.714;11.372;2024-02-23T02:03:23;1.95;;;0.75;;
61785;SDS011;47692;53.714;11.372;2024-02-23T02:05:48;2.13;;;0.80;;
61785;SDS011;47692;53.714;11.372;2024-02-23T02:08:15;1.13;;;0.40;;
61785;SDS011;47692;53.714;11.372;2024-02-23T02:10:42;1.08;;;0.60;;
61785;SDS011;47692;53.714;11.372;2024-02-23T02:13:08;2.67;;;0.73;;
61785;SDS011;47692;53.714;11.372;2024-02-23T02:15:33;1.52;;;0.60;;
61785;SDS011;47692;53.714;11.372;2024-02-23T02:17:59;1.70;;;0.60;;
61785;SDS011;47692;53.714;11.372;2024-02-23T02:20:24;0.63;;;0.55;;
61785;SDS011;47692;53.714;11.372;2024-02-23T02:22:51;1.88;;;0.60;;
61785;SDS011;47692;53.714;11.372;2024-02-23T02:25:16;0.80;;;0.60;;
61785;SDS011;47692;53.714;11.372;2024-02-23T02:27:42;1.58;;;1.05;;
61785;SDS011;47692;53.714;11.372;2024-02-23T02:30:10;0.70;;;0.60;;
61785;SDS011;47692;53.714;11.372;2024-02-23T02:32:36;0.68;;;0.40;;
61785;SDS011;47692;53.714;11.372;2024-02-23T02:35:01;1.05;;;0.20;;
61785;SDS011;47692;53.714;11.372;2024-02-23T02:37:27;0.32;;;0.20;;
61785;SDS011;47692;53.714;11.372;2024-02-23T02:39:52;0.20;;;0.20;;
61785;SDS011;47692;53.714;11.372;2024-02-23T02:42:17;0.10;;;0.10;;
61785;SDS011;47692;53.714;11.372;2024-02-23T02:44:43;0.10;;;0.10;;
61785;SDS011;47692;53.714;11.372;2024-02-23T02:47:08;0.30;;;0.20;;
61785;SDS011;47692;53.714;11.372;2024-02-23T02:49:33;0.50;;;0.20;;
61785;SDS011;47692;53.714;11.372;2024-02-23T02:51:59;0.43;;;0.13;;
61785;SDS011;47692;53.714;11.372;2024-02-23T02:54:27;0.40;;;0.25;;
61785;SDS011;47692;53.714;11.372;2024-02-23T02:56:55;0.30;;;0.20;;
61785;SDS011;47692;53.714;11.372;2024-02-23T02:59:20;1.73;;;0.35;;
61785;SDS011;47692;53.714;11.372;2024-02-23T03:01:46;0.95;;;0.30;;
61785;SDS011;47692;53.714;11.372;2024-02-23T03:04:12;1.15;;;0.50;;
61785;SDS011;47692;53.714;11.372;2024-02-23T03:06:37;2.92;;;0.60;;
61785;SDS011;47692;53.714;11.372;2024-02-23T03:09:02;1.60;;;0.50;;
61785;SDS011;47692;53.714;11.372;2024-02-23T03:11:28;1.25;;;1.15;;
61785;SDS011;47692;53.714;11.372;2024-02-23T03:13:53;1.08;;;0.70;;
61785;SDS011;47692;53.714;11.372;2024-02-23T03:16:19;1.15;;;0.70;;
61785;SDS011;47692;53.714;11.372;2024-02-23T03:18:46;1.38;;;0.70;;
61785;SDS011;47692;53.714;11.372;2024-02-23T03:21:12;0.80;;;0.65;;
61785;SDS011;47692;53.714;11.372;2024-02-23T03:23:39;0.80;;;0.52;;
61785;SDS011;47692;53.714;11.372;2024-02-23T03:26:06;1.08;;;0.80;;
61785;SDS011;47692;53.714;11.372;2024-02-23T03:28:31;0.70;;;0.55;;
61785;SDS011;47692;53.714;11.372;2024-02-23T03:30:57;0.70;;;0.50;;
61785;SDS011;47692;53.714;11.372;2024-02-23T03:33:22;2.17;;;0.70;;
61785;SDS011;47692;53.714;11.372;2024-02-23T03:35:47;0.70;;;0.60;;
61785;SDS011;47692;53.714;11.372;2024-02-23T03:38:13;1.20;;;0.82;;
61785;SDS011;47692;53.714;11.372;2024-02-23T03:40:38;1.23;;;0.80;;
61785;SDS011;47692;53.714;11.372;2024-02-23T03:43:03;1.08;;;0.73;;
61785;SDS011;47692;53.714;11.372;2024-02-23T03:45:29;1.00;;;0.70;;
61785;SDS011;47692;53.714;11.372;2024-02-23T03:47:54;1.20;;;0.80;;
61785;SDS011;47692;53.714;11.372;2024-02-23T03:50:19;3.47;;;0.93;;
61785;SDS011;47692;53.714;11.372;2024-02-23T03:52:45;0.68;;;0.50;;
61785;SDS011;47692;53.714;11.372;2024-02-23T03:55:10;0.85;;;0.63;;
61785;SDS011;47692;53.714;11.372;2024-02-23T03:57:36;0.57;;;0.57;;
61785;SDS011;47692;53.714;11.372;2024-02-23T04:00:02;0.70;;;0.60;;
61785;SDS011;47692;53.714;11.372;2024-02-23T04:02:27;0.65;;;0.65;;
61785;SDS011;47692;53.714;11.372;2024-02-23T04:04:53;2.00;;;0.70;;
61785;SDS011;47692;53.714;11.372;2024-02-23T04:07:19;0.85;;;0.70;;
61785;SDS011;47692;53.714;11.372;2024-02-23T04:09:44;0.70;;;0.60;;
61785;SDS011;47692;53.714;11.372;2024-02-23T04:12:10;0.70;;;0.60;;
61785;SDS011;47692;53.714;11.372;2024-02-23T04:14:35;0.70;;;0.63;;
61785;SDS011;47692;53.714;11.372;2024-02-23T04:17:04;1.20;;;0.60;;
61785;SDS011;47692;53.714;11.372;2024-02-23T04:19:29;0.63;;;0.60;;
61785;SDS011;47692;53.714;11.372;2024-02-23T04:21:55;1.40;;;0.60;;
61785;SDS011;47692;53.714;11.372;2024-02-23T04:24:20;1.67;;;0.55;;
61785;SDS011;47692;53.714;11.372;2024-02-23T04:26:46;1.25;;;0.70;;
61785;SDS011;47692;53.714;11.372;2024-02-23T04:29:11;0.40;;;0.40;;
61785;SDS011;47692;53.714;11.372;2024-02-23T04:31:37;1.05;;;0.75;;
61785;SDS011;47692;53.714;11.372;2024-02-23T04:34:03;0.82;;;0.45;;
61785;SDS011;47692;53.714;11.372;2024-02-23T04:36:28;0.32;;;0.32;;
61785;SDS011;47692;53.714;11.372;2024-02-23T04:38:54;2.08;;;0.50;;
61785;SDS011;47692;53.714;11.372;2024-02-23T04:41:19;0.50;;;0.40;;
61785;SDS011;47692;53.714;11.372;2024-02-23T04:43:47;0.32;;;0.32;;
61785;SDS011;47692;53.714;11.372;2024-02-23T04:46:12;0.30;;;0.30;;
61785;SDS011;47692;53.714;11.372;2024-02-23T04:48:38;0.68;;;0.40;;
61785;SDS011;47692;53.714;11.372;2024-02-23T04:51:03;0.20;;;0.20;;
61785;SDS011;47692;53.714;11.372;2024-02-23T04:53:29;0.25;;;0.25;;
61785;SDS011;47692;53.714;11.372;2024-02-23T04:55:54;1.55;;;0.20;;
61785;SDS011;47692;53.714;11.372;2024-02-23T04:58:19;1.70;;;0.32;;
61785;SDS011;47692;53.714;11.372;2024-02-23T05:00:46;0.20;;;0.20;;
61785;SDS011;47692;53.714;11.372;2024-02-23T05:03:11;1.48;;;0.25;;
61785;SDS011;47692;53.714;11.372;2024-02-23T05:05:36;2.58;;;0.40;;
61785;SDS011;47692;53.714;11.372;2024-02-23T05:08:02;0.30;;;0.20;;
61785;SDS011;47692;53.714;11.372;2024-02-23T05:10:27;0.52;;;0.32;;
61785;SDS011;47692;53.714;11.372;2024-02-23T05:12:53;1.83;;;0.40;;
61785;SDS011;47692;53.714;11.372;2024-02-23T05:15:18;0.45;;;0.30;;
61785;SDS011;47692;53.714;11.372;2024-02-23T05:17:44;5.40;;;0.50;;
61785;SDS011;47692;53.714;11.372;2024-02-23T05:20:09;0.55;;;0.40;;
61785;SDS011;47692;53.714;11.372;2024-02-23T05:22:38;1.30;;;0.32;;
61785;SDS011;47692;53.714;11.372;2024-02-23T05:25:04;2.05;;;0.30;;
61785;SDS011;47692;53.714;11.372;2024-02-23T05:27:30;2.08;;;0.35;;
61785;SDS011;47692;53.714;11.372;2024-02-23T05:29:56;0.30;;;0.25;;
61785;SDS011;47692;53.714;11.372;2024-02-23T05:32:21;0.60;;;0.40;;
61785;SDS011;47692;53.714;11.372;2024-02-23T05:34:47;0.63;;;0.40;;
61785;SDS011;47692;53.714;11.372;2024-02-23T05:37:16;0.40;;;0.40;;
61785;SDS011;47692;53.714;11.372;2024-02-23T05:39:41;0.30;;;0.30;;
61785;SDS011;47692;53.714;11.372;2024-02-23T05:42:06;1.45;;;0.50;;
61785;SDS011;47692;53.714;11.372;2024-02-23T05:44:32;0.47;;;0.40;;
61785;SDS011;47692;53.714;11.372;2024-02-23T05:46:58;0.80;;;0.50;;
61785;SDS011;47692;53.714;11.372;2024-02-23T05:49:23;0.40;;;0.40;;
61785;SDS011;47692;53.714;11.372;2024-02-23T05:51:49;1.50;;;0.43;;
61785;SDS011;47692;53.714;11.372;2024-02-23T05:54:14;0.50;;;0.50;;
61785;SDS011;47692;53.714;11.372;2024-02-23T05:56:39;3.70;;;1.30;;
61785;SDS011;47692;53.714;11.372;2024-02-23T05:59:05;0.77;;;0.50;;
61785;SDS011;47692;53.714;11.372;2024-02-23T06:01:31;1.77;;;0.80;;
61785;SDS011;47692;53.714;11.372;2024-02-23T06:03:56;3.42;;;0.85;;
61785;SDS011;47692;53.714;11.372;2024-02-23T06:06:22;1.85;;;0.95;;
61785;SDS011;47692;53.714;11.372;2024-02-23T06:08:47;2.00;;;0.80;;
61785;SDS011;47692;53.714;11.372;2024-02-23T06:11:14;2.53;;;1.02;;
61785;SDS011;47692;53.714;11.372;2024-02-23T06:13:40;2.38;;;1.20;;
61785;SDS011;47692;53.714;11.372;2024-02-23T06:16:09;1.65;;;1.00;;
61785;SDS011;47692;53.714;11.372;2024-02-23T06:18:35;5.50;;;1.23;;
61785;SDS011;47692;53.714;11.372;2024-02-23T06:21:00;2.63;;;0.90;;
61785;SDS011;47692;53.714;11.372;2024-02-23T06:23:26;2.92;;;1.15;;
61785;SDS011;47692;53.714;11.372;2024-02-23T06:25:51;2.67;;;0.85;;
61785;SDS011;47692;53.714;11.372;2024-02-23T06:28:16;2.95;;;1.00;;
61785;SDS011;47692;53.714;11.372;2024-02-23T06:30:42;3.13;;;1.27;;
61785;SDS011;47692;53.714;11.372;2024-02-23T06:33:07;3.85;;;1.10;;
61785;SDS011;47692;53.714;11.372;2024-02-23T06:35:33;3.58;;;1.50;;
61785;SDS011;47692;53.714;11.372;2024-02-23T06:37:58;3.08;;;1.08;;
61785;SDS011;47692;53.714;11.372;2024-02-23T06:40:24;6.82;;;1.40;;
61785;SDS011;47692;53.714;11.372;2024-02-23T06:42:49;4.80;;;1.08;;
61785;SDS011;47692;53.714;11.372;2024-02-23T06:45:15;2.22;;;1.05;;
61785;SDS011;47692;53.714;11.372;2024-02-23T06:47:40;3.30;;;1.38;;
61785;SDS011;47692;53.714;11.372;2024-02-23T06:50:07;1.30;;;0.95;;
61785;SDS011;47692;53.714;11.372;2024-02-23T06:52:33;2.55;;;1.20;;
61785;SDS011;47692;53.714;11.372;2024-02-23T06:54:59;1.95;;;1.30;;
61785;SDS011;47692;53.714;11.372;2024-02-23T06:57:24;2.70;;;1.70;;
61785;SDS011;47692;53.714;11.372;2024-02-23T06:59:50;3.17;;;1.10;;
61785;SDS011;47692;53.714;11.372;2024-02-23T07:02:16;1.77;;;1.20;;
61785;SDS011;47692;53.714;11.372;2024-02-23T07:04:41;3.97;;;2.58;;
61785;SDS011;47692;53.714;11.372;2024-02-23T07:07:07;2.67;;;1.15;;
61785;SDS011;47692;53.714;11.372;2024-02-23T07:09:33;5.25;;;1.50;;
61785;SDS011;47692;53.714;11.372;2024-02-23T07:11:59;2.75;;;1.20;;
61785;SDS011;47692;53.714;11.372;2024-02-23T07:14:25;2.05;;;1.10;;
61785;SDS011;47692;53.714;11.372;2024-02-23T07:16:50;4.22;;;1.30;;
61785;SDS011;47692;53.714;11.372;2024-02-23T07:19:17;5.38;;;1.33;;
61785;SDS011;47692;53.714;11.372;2024-02-23T07:21:42;2.38;;;1.40;;
61785;SDS011;47692;53.714;11.372;2024-02-23T07:24:08;1.55;;;1.17;;
61785;SDS011;47692;53.714;11.372;2024-02-23T07:26:33;1.85;;;1.35;;
61785;SDS011;47692;53.714;11.372;2024-02-23T07:28:58;4.25;;;1.25;;
61785;SDS011;47692;53.714;11.372;2024-02-23T07:31:24;1.95;;;1.20;;
61785;SDS011;47692;53.714;11.372;2024-02-23T07:33:49;4.38;;;1.20;;
61785;SDS011;47692;53.714;11.372;2024-02-23T07:36:16;2.72;;;1.48;;
61785;SDS011;47692;53.714;11.372;2024-02-23T07:38:41;2.75;;;1.20;;
61785;SDS011;47692;53.714;11.372;2024-02-23T07:41:08;6.70;;;1.75;;
61785;SDS011;47692;53.714;11.372;2024-02-23T07:43:34;1.38;;;1.10;;
61785;SDS011;47692;53.714;11.372;2024-02-23T07:45:59;3.55;;;1.33;;
61785;SDS011;47692;53.714;11.372;2024-02-23T07:48:27;2.55;;;1.15;;
61785;SDS011;47692;53.714;11.372;2024-02-23T07:50:52;1.08;;;0.93;;
61785;SDS011;47692;53.714;11.372;2024-02-23T07:53:17;3.95;;;1.48;;
61785;SDS011;47692;53.714;11.372;2024-02-23T07:55:42;7.70;;;1.48;;
61785;SDS011;47692;53.714;11.372;2024-02-23T07:58:08;5.15;;;1.25;;
61785;SDS011;47692;53.714;11.372;2024-02-23T08:00:33;3.17;;;1.00;;
61785;SDS011;47692;53.714;11.372;2024-02-23T08:02:59;6.70;;;1.70;;
61785;SDS011;47692;53.714;11.372;2024-02-23T08:05:25;3.45;;;1.60;;
61785;SDS011;47692;53.714;11.372;2024-02-23T08:07:50;2.78;;;1.10;;
61785;SDS011;47692;53.714;11.372;2024-02-23T08:10:16;5.85;;;1.80;;
61785;SDS011;47692;53.714;11.372;2024-02-23T08:12:41;1.33;;;1.13;;
61785;SDS011;47692;53.714;11.372;2024-02-23T08:15:06;3.13;;;1.33;;
61785;SDS011;47692;53.714;11.372;2024-02-23T08:17:32;4.95;;;1.25;;
61785;SDS011;47692;53.714;11.372;2024-02-23T08:19:57;3.60;;;1.25;;
61785;SDS011;47692;53.714;11.372;2024-02-23T08:22:22;4.55;;;1.02;;
61785;SDS011;47692;53.714;11.372;2024-02-23T08:24:48;3.17;;;1.10;;
61785;SDS011;47692;53.714;11.372;2024-02-23T08:27:14;1.45;;;1.00;;
61785;SDS011;47692;53.714;11.372;2024-02-23T08:29:39;4.00;;;1.20;;
61785;SDS011;47692;53.714;11.372;2024-02-23T08:32:04;4.80;;;1.52;;
61785;SDS011;47692;53.714;11.372;2024-02-23T08:34:30;2.15;;;1.10;;
61785;SDS011;47692;53.714;11.372;2024-02-23T08:36:55;4.15;;;1.17;;
61785;SDS011;47692;53.714;11.372;2024-02-23T08:39:20;3.20;;;1.23;;
61785;SDS011;47692;53.714;11.372;2024-02-23T08:41:47;5.85;;;1.38;;
61785;SDS011;47692;53.714;11.372;2024-02-23T08:44:12;4.65;;;1.10;;
61785;SDS011;47692;53.714;11.372;2024-02-23T08:46:37;4.15;;;1.60;;
61785;SDS011;47692;53.714;11.372;2024-02-23T08:49:04;2.85;;;1.15;;
61785;SDS011;47692;53.714;11.372;2024-02-23T08:51:30;3.25;;;1.20;;
61785;SDS011;47692;53.714;11.372;2024-02-23T08:53:55;2.38;;;0.93;;
61785;SDS011;47692;53.714;11.372;2024-02-23T08:56:22;2.67;;;1.00;;
61785;SDS011;47692;53.714;11.372;2024-02-23T08:58:47;2.78;;;1.30;;
61785;SDS011;47692;53.714;11.372;2024-02-23T09:01:12;2.22;;;1.13;;
61785;SDS011;47692;53.714;11.372;2024-02-23T09:03:38;3.65;;;1.40;;
61785;SDS011;47692;53.714;11.372;2024-02-23T09:06:03;1.80;;;1.15;;
61785;SDS011;47692;53.714;11.372;2024-02-23T09:08:29;3.67;;;1.30;;
61785;SDS011;47692;53.714;11.372;2024-02-23T09:10:54;2.83;;;1.55;;
61785;SDS011;47692;53.714;11.372;2024-02-23T09:13:19;5.60;;;1.30;;
61785;SDS011;47692;53.714;11.372;2024-02-23T09:15:45;1.77;;;1.25;;
61785;SDS011;47692;53.714;11.372;2024-02-23T09:18:10;1.75;;;1.05;;
61785;SDS011;47692;53.714;11.372;2024-02-23T09:20:35;6.38;;;1.42;;
61785;SDS011;47692;53.714;11.372;2024-02-23T09:23:00;5.75;;;1.42;;
61785;SDS011;47692;53.714;11.372;2024-02-23T09:25:26;3.80;;;1.20;;
61785;SDS011;47692;53.714;11.372;2024-02-23T09:27:51;3.33;;;1.40;;
61785;SDS011;47692;53.714;11.372;2024-02-23T09:30:16;4.10;;;1.40;;
61785;SDS011;47692;53.714;11.372;2024-02-23T09:32:42;4.68;;;1.20;;
61785;SDS011;47692;53.714;11.372;2024-02-23T09:35:09;5.15;;;1.17;;
61785;SDS011;47692;53.714;11.372;2024-02-23T09:37:34;2.20;;;1.02;;
61785;SDS011;47692;53.714;11.372;2024-02-23T09:40:00;6.15;;;1.00;;
61785;SDS011;47692;53.714;11.372;2024-02-23T09:42:26;4.50;;;1.20;;
61785;SDS011;47692;53.714;11.372;2024-02-23T09:44:57;4.03;;;1.10;;
61785;SDS011;47692;53.714;11.372;2024-02-23T09:47:25;4.43;;;1.13;;
61785;SDS011;47692;53.714;11.372;2024-02-23T09:49:52;4.88;;;1.00;;
61785;SDS011;47692;53.714;11.372;2024-02-23T09:52:18;3.40;;;0.93;;
61785;SDS011;47692;53.714;11.372;2024-02-23T09:54:45;1.65;;;0.75;;
61785;SDS011;47692;53.714;11.372;2024-02-23T09:57:10;3.33;;;0.82;;
61785;SDS011;47692;53.714;11.372;2024-02-23T09:59:36;5.43;;;1.35;;
61785;SDS011;47692;53.714;11.372;2024-02-23T10:02:02;2.33;;;0.95;;
61785;SDS011;47692;53.714;11.372;2024-02-23T10:04:33;3.65;;;1.10;;
61785;SDS011;47692;53.714;11.372;2024-02-23T10:06:58;2.55;;;0.90;;
61785;SDS011;47692;53.714;11.372;2024-02-23T10:09:24;3.00;;;1.00;;
61785;SDS011;47692;53.714;11.372;2024-02-23T10:11:52;4.28;;;1.75;;
61785;SDS011;47692;53.714;11.372;2024-02-23T10:14:18;4.63;;;1.02;;
61785;SDS011;47692;53.714;11.372;2024-02-23T10:16:44;2.85;;;1.10;;
61785;SDS011;47692;53.714;11.372;2024-02-23T10:19:09;5.70;;;1.20;;
61785;SDS011;47692;53.714;11.372;2024-02-23T10:21:34;2.30;;;1.15;;
61785;SDS011;47692;53.714;11.372;2024-02-23T10:24:00;3.83;;;0.90;;
61785;SDS011;47692;53.714;11.372;2024-02-23T10:26:26;2.70;;;1.00;;
61785;SDS011;47692;53.714;11.372;2024-02-23T10:28:52;4.35;;;0.90;;
61785;SDS011;47692;53.714;11.372;2024-02-23T10:31:17;3.88;;;1.13;;
61785;SDS011;47692;53.714;11.372;2024-02-23T10:33:44;6.03;;;1.20;;
61785;SDS011;47692;53.714;11.372;2024-02-23T10:36:10;2.50;;;1.00;;
61785;SDS011;47692;53.714;11.372;2024-02-23T10:38:37;4.85;;;1.00;;
61785;SDS011;47692;53.714;11.372;2024-02-23T10:41:06;4.00;;;1.30;;
61785;SDS011;47692;53.714;11.372;2024-02-23T10:43:36;2.78;;;1.10;;
61785;SDS011;47692;53.714;11.372;2024-02-23T10:46:13;6.25;;;1.23;;
61785;SDS011;47692;53.714;11.372;2024-02-23T10:48:43;1.63;;;0.90;;
61785;SDS011;47692;53.714;11.372;2024-02-23T10:51:09;4.57;;;0.93;;
61785;SDS011;47692;53.714;11.372;2024-02-23T10:53:37;5.07;;;1.27;;
61785;SDS011;47692;53.714;11.372;2024-02-23T10:56:04;2.80;;;0.95;;
61785;SDS011;47692;53.714;11.372;2024-02-23T10:58:31;3.28;;;1.23;;
61785;SDS011;47692;53.714;11.372;2024-02-23T11:01:03;3.35;;;1.45;;
61785;SDS011;47692;53.714;11.372;2024-02-23T11:03:32;1.73;;;0.90;;
61785;SDS011;47692;53.714;11.372;2024-02-23T11:05:59;4.53;;;0.90;;
61785;SDS011;47692;53.714;11.372;2024-02-23T11:08:27;4.88;;;0.82;;
61785;SDS011;47692;53.714;11.372;2024-02-23T11:10:53;1.63;;;0.68;;
61785;SDS011;47692;53.714;11.372;2024-02-23T11:13:29;3.38;;;1.10;;
61785;SDS011;47692;53.714;11.372;2024-02-23T11:16:04;6.82;;;1.42;;
61785;SDS011;47692;53.714;11.372;2024-02-23T11:18:30;2.90;;;0.88;;
61785;SDS011;47692;53.714;11.372;2024-02-23T11:20:59;3.47;;;1.00;;
61785;SDS011;47692;53.714;11.372;2024-02-23T11:23:25;4.43;;;0.80;;
61785;SDS011;47692;53.714;11.372;2024-02-23T11:28:28;6.47;;;1.35;;
61785;SDS011;47692;53.714;11.372;2024-02-23T11:30:53;2.47;;;0.70;;
61785;SDS011;47692;53.714;11.372;2024-02-23T11:33:25;2.92;;;1.02;;
61785;SDS011;47692;53.714;11.372;2024-02-23T11:38:17;2.08;;;0.85;;
61785;SDS011;47692;53.714;11.372;2024-02-23T11:40:45;3.90;;;0.90;;
61785;SDS011;47692;53.714;11.372;2024-02-23T11:43:12;2.83;;;0.90;;
61785;SDS011;47692;53.714;11.372;2024-02-23T11:45:39;2.35;;;0.90;;
61785;SDS011;47692;53.714;11.372;2024-02-23T11:48:06;2.90;;;0.80;;
61785;SDS011;47692;53.714;11.372;2024-02-23T11:50:32;2.05;;;0.82;;
61785;SDS011;47692;53.714;11.372;2024-02-23T11:52:57;5.28;;;1.00;;
61785;SDS011;47692;53.714;11.372;2024-02-23T11:55:23;3.38;;;1.10;;
61785;SDS011;47692;53.714;11.372;2024-02-23T11:57:48;2.40;;;0.60;;
61785;SDS011;47692;53.714;11.372;2024-02-23T12:00:14;1.77;;;0.57;;
61785;SDS011;47692;53.714;11.372;2024-02-23T12:02:40;1.45;;;0.50;;
61785;SDS011;47692;53.714;11.372;2024-02-23T12:05:06;2.58;;;0.60;;
61785;SDS011;47692;53.714;11.372;2024-02-23T12:07:31;1.55;;;0.55;;
61785;SDS011;47692;53.714;11.372;2024-02-23T12:09:58;6.38;;;1.98;;
61785;SDS011;47692;53.714;11.372;2024-02-23T12:12:25;4.05;;;0.93;;
61785;SDS011;47692;53.714;11.372;2024-02-23T12:14:51;2.90;;;0.85;;
61785;SDS011;47692;53.714;11.372;2024-02-23T12:17:16;3.03;;;0.80;;
61785;SDS011;47692;53.714;11.372;2024-02-23T12:19:41;3.15;;;0.50;;
61785;SDS011;47692;53.714;11.372;2024-02-23T12:22:07;4.68;;;0.77;;
61785;SDS011;47692;53.714;11.372;2024-02-23T12:24:33;2.47;;;0.70;;
61785;SDS011;47692;53.714;11.372;2024-02-23T12:26:59;4.85;;;0.60;;
61785;SDS011;47692;53.714;11.372;2024-02-23T12:29:24;7.00;;;0.70;;
61785;SDS011;47692;53.714;11.372;2024-02-23T12:31:50;4.75;;;0.60;;
61785;SDS011;47692;53.714;11.372;2024-02-23T12:34:15;2.88;;;0.70;;
61785;SDS011;47692;53.714;11.372;2024-02-23T12:36:41;3.35;;;0.60;;
61785;SDS011;47692;53.714;11.372;2024-02-23T12:39:06;2.28;;;0.40;;
61785;SDS011;47692;53.714;11.372;2024-02-23T12:41:31;1.85;;;0.70;;
61785;SDS011;47692;53.714;11.372;2024-02-23T12:43:57;2.67;;;0.77;;
61785;SDS011;47692;53.714;11.372;2024-02-23T12:46:23;2.50;;;0.50;;
61785;SDS011;47692;53.714;11.372;2024-02-23T12:48:49;3.63;;;0.77;;
61785;SDS011;47692;53.714;11.372;2024-02-23T12:51:14;4.78;;;1.02;;
61785;SDS011;47692;53.714;11.372;2024-02-23T12:53:40;0.60;;;0.40;;
61785;SDS011;47692;53.714;11.372;2024-02-23T12:56:10;1.58;;;0.30;;
61785;SDS011;47692;53.714;11.372;2024-02-23T12:58:38;2.50;;;0.50;;
61785;SDS011;47692;53.714;11.372;2024-02-23T13:01:05;1.20;;;0.40;;
61785;SDS011;47692;53.714;11.372;2024-02-23T13:03:34;1.17;;;0.32;;
61785;SDS011;47692;53.714;11.372;2024-02-23T13:06:00;1.95;;;0.80;;
61785;SDS011;47692;53.714;11.372;2024-02-23T13:08:26;1.92;;;0.40;;
61785;SDS011;47692;53.714;11.372;2024-02-23T13:10:52;1.40;;;0.57;;
61785;SDS011;47692;53.714;11.372;2024-02-23T13:13:18;2.85;;;0.95;;
61785;SDS011;47692;53.714;11.372;2024-02-23T13:15:45;2.95;;;0.35;;
61785;SDS011;47692;53.714;11.372;2024-02-23T13:18:11;3.33;;;1.33;;
61785;SDS011;47692;53.714;11.372;2024-02-23T13:20:37;3.55;;;1.35;;
61785;SDS011;47692;53.714;11.372;2024-02-23T13:23:03;2.75;;;0.60;;
61785;SDS011;47692;53.714;11.372;2024-02-23T13:25:29;3.80;;;0.65;;
61785;SDS011;47692;53.714;11.372;2024-02-23T13:30:46;2.70;;;0.57;;
61785;SDS011;47692;53.714;11.372;2024-02-23T13:33:12;1.25;;;0.35;;
61785;SDS011;47692;53.714;11.372;2024-02-23T13:35:38;1.77;;;0.50;;
61785;SDS011;47692;53.714;11.372;2024-02-23T13:38:04;1.35;;;0.43;;
61785;SDS011;47692;53.714;11.372;2024-02-23T13:40:29;2.90;;;0.70;;
61785;SDS011;47692;53.714;11.372;2024-02-23T13:42:56;3.70;;;0.70;;
61785;SDS011;47692;53.714;11.372;2024-02-23T13:45:21;2.35;;;0.60;;
61785;SDS011;47692;53.714;11.372;2024-02-23T13:48:22;2.10;;;0.65;;
61785;SDS011;47692;53.714;11.372;2024-02-23T13:53:06;1.77;;;0.43;;
61785;SDS011;47692;53.714;11.372;2024-02-23T13:55:31;3.63;;;0.75;;
61785;SDS011;47692;53.714;11.372;2024-02-23T13:57:57;0.77;;;0.45;;
61785;SDS011;47692;53.714;11.372;2024-02-23T14:00:22;3.28;;;0.50;;
61785;SDS011;47692;53.714;11.372;2024-02-23T14:02:48;1.95;;;0.40;;
61785;SDS011;47692;53.714;11.372;2024-02-23T14:05:13;4.57;;;1.17;;
61785;SDS011;47692;53.714;11.372;2024-02-23T14:07:40;3.92;;;0.50;;
61785;SDS011;47692;53.714;11.372;2024-02-23T14:10:05;3.72;;;1.35;;
61785;SDS011;47692;53.714;11.372;2024-02-23T14:12:32;5.60;;;0.75;;
61785;SDS011;47692;53.714;11.372;2024-02-23T14:14:57;3.03;;;0.57;;
61785;SDS011;47692;53.714;11.372;2024-02-23T14:17:22;4.85;;;0.50;;
61785;SDS011;47692;53.714;11.372;2024-02-23T14:19:48;2.35;;;0.30;;
61785;SDS011;47692;53.714;11.372;2024-02-23T14:22:13;2.22;;;0.22;;
61785;SDS011;47692;53.714;11.372;2024-02-23T14:24:38;6.95;;;1.08;;
61785;SDS011;47692;53.714;11.372;2024-02-23T14:27:04;1.58;;;0.55;;
61785;SDS011;47692;53.714;11.372;2024-02-23T14:29:29;0.95;;;0.50;;
61785;SDS011;47692;53.714;11.372;2024-02-23T14:31:54;1.75;;;0.30;;
61785;SDS011;47692;53.714;11.372;2024-02-23T14:34:20;1.70;;;0.38;;
61785;SDS011;47692;53.714;11.372;2024-02-23T14:36:48;1.88;;;0.50;;